Time;durP1;ratioP1;P1;durP2;ratioP2;P2;SDS_P1;SDS_P2;PMS_P1;PMS_P2;Temp;Humidity;BMP_temperature;BMP_pressure;BME280_temperature;BME280_humidity;BME280_pressure;Samples;Min_cycle;Max_cycle;Signal;HPM_P1;HPM_P2
2021/09/27 00:00:19;;;;;;;7.78;7.07;;;;;;;19.37;89.21;95900.88;5036532;28;20688;-84
2021/09/27 00:02:47;;;;;;;7.53;6.82;;;;;;;19.40;88.85;95897.84;5037301;28;20225;-82
2021/09/27 00:05:17;;;;;;;8.10;7.30;;;;;;;19.42;88.58;95896.59;5037625;28;20198;-84
2021/09/27 00:07:43;;;;;;;7.45;6.53;;;;;;;19.43;89.01;95892.97;5036846;28;20233;-82
2021/09/27 00:10:15;;;;;;;7.78;6.90;;;;;;;19.43;88.89;95900.00;5037385;28;20205;-83
2021/09/27 00:12:44;;;;;;;7.30;6.50;;;;;;;19.38;88.66;95892.03;5038455;28;20613;-82
2021/09/27 00:15:17;;;;;;;7.97;7.28;;;;;;;19.40;88.55;95898.63;5038592;28;20194;-85
2021/09/27 00:17:44;;;;;;;8.10;7.30;;;;;;;19.39;89.27;95894.44;5039548;28;20209;-85
2021/09/27 00:20:12;;;;;;;8.02;7.32;;;;;;;19.37;88.32;95901.69;5039282;28;20564;-82
2021/09/27 00:22:43;;;;;;;8.75;7.10;;;;;;;19.37;87.77;95891.25;5036575;28;20218;-84
2021/09/27 00:25:11;;;;;;;8.13;7.43;;;;;;;19.37;87.88;95893.84;5038941;28;20202;-85
2021/09/27 00:27:42;;;;;;;8.30;7.50;;;;;;;19.35;87.98;95893.28;5038627;28;20229;-82
2021/09/27 00:30:10;;;;;;;7.53;6.80;;;;;;;19.26;88.47;95892.00;5037954;28;20232;-84
2021/09/27 00:32:38;;;;;;;7.25;6.55;;;;;;;19.27;88.02;95888.38;5036216;28;20249;-85
2021/09/27 00:35:06;;;;;;;7.38;6.78;;;;;;;19.27;87.83;95893.59;5035893;28;20206;-82
2021/09/27 00:37:32;;;;;;;7.70;6.97;;;;;;;19.22;87.75;95889.06;5034834;28;20229;-82
2021/09/27 00:39:59;;;;;;;7.85;7.07;;;;;;;19.21;88.40;95886.66;5035642;28;20824;-82
2021/09/27 00:42:25;;;;;;;7.30;6.63;;;;;;;19.20;87.80;95887.69;5035606;28;20226;-82
2021/09/27 00:44:52;;;;;;;7.28;6.53;;;;;;;19.21;87.65;95882.25;5035633;28;20209;-82
2021/09/27 00:47:19;;;;;;;7.45;6.68;;;;;;;19.22;87.83;95883.84;5035093;28;20316;-81
2021/09/27 00:49:48;;;;;;;7.63;6.93;;;;;;;19.21;88.45;95881.44;5035481;28;20198;-83
2021/09/27 00:52:14;;;;;;;7.65;6.93;;;;;;;19.26;87.83;95882.34;5035605;28;20226;-84
2021/09/27 00:54:45;;;;;;;7.63;6.93;;;;;;;19.26;87.53;95881.53;5035157;28;20256;-84
2021/09/27 00:57:19;;;;;;;7.60;6.90;;;;;;;19.26;87.69;95876.31;5035186;28;20202;-84
2021/09/27 00:59:50;;;;;;;7.70;7.00;;;;;;;19.24;87.89;95879.16;5034865;28;20201;-84
2021/09/27 01:02:17;;;;;;;7.72;7.03;;;;;;;19.23;88.24;95874.19;5035282;28;20222;-84
2021/09/27 01:04:44;;;;;;;7.65;6.95;;;;;;;19.26;88.96;95871.91;5033781;28;20206;-82
2021/09/27 01:07:25;;;;;;;7.65;6.95;;;;;;;19.28;88.47;95874.28;5033986;28;20241;-82
2021/09/27 01:10:15;;;;;;;7.55;6.85;;;;;;;19.27;88.79;95873.50;5034342;28;20198;-82
2021/09/27 01:12:58;;;;;;;7.78;7.07;;;;;;;19.26;88.01;95877.13;5034080;28;20229;-82
2021/09/27 01:15:35;;;;;;;7.40;6.65;;;;;;;19.24;87.79;95883.59;5033619;28;20202;-81
2021/09/27 01:18:20;;;;;;;7.22;6.53;;;;;;;19.21;88.06;95891.88;5034571;28;20202;-81
2021/09/27 01:21:07;;;;;;;8.57;7.03;;;;;;;19.20;88.38;95898.13;5034550;28;20232;-82
2021/09/27 01:24:14;;;;;;;7.32;6.63;;;;;;;19.15;88.57;95890.94;5035298;28;20257;-82
2021/09/27 01:27:05;;;;;;;7.18;6.57;;;;;;;19.09;89.66;95883.19;5035569;28;20198;-84
2021/09/27 01:29:48;;;;;;;8.13;7.35;;;;;;;19.09;89.05;95876.16;5035113;28;20210;-85
2021/09/27 01:32:30;;;;;;;7.75;7.00;;;;;;;19.10;89.68;95880.38;5034855;28;20229;-84
2021/09/27 01:35:05;;;;;;;7.18;6.57;;;;;;;19.11;89.21;95873.34;5034857;28;20198;-84
2021/09/27 01:37:40;;;;;;;7.80;7.10;;;;;;;19.09;90.20;95878.78;5033880;28;20233;-83
2021/09/27 01:40:14;;;;;;;7.97;7.28;;;;;;;19.07;89.95;95867.75;5034986;28;20209;-82
2021/09/27 01:42:47;;;;;;;7.90;7.13;;;;;;;19.11;89.55;95873.34;5033909;28;20241;-82
2021/09/27 01:45:20;;;;;;;8.52;7.30;;;;;;;19.10;88.57;95864.72;5032814;28;20248;-83
2021/09/27 01:47:53;;;;;;;8.10;7.32;;;;;;;19.03;90.76;95856.19;5033888;28;20218;-81
2021/09/27 01:50:23;;;;;;;7.82;7.13;;;;;;;18.91;91.08;95863.97;5034868;28;20198;-84
2021/09/27 01:53:00;;;;;;;8.00;7.28;;;;;;;18.85;92.14;95857.03;5045174;22;20296;-86
2021/09/27 01:55:32;;;;;;;7.90;7.22;;;;;;;18.91;91.47;95865.78;5034358;28;20209;-85
2021/09/27 01:58:04;;;;;;;7.88;7.15;;;;;;;19.00;91.64;95853.22;5033929;28;20205;-84
2021/09/27 02:00:40;;;;;;;7.82;7.10;;;;;;;19.00;90.57;95859.25;5034789;28;20193;-85
2021/09/27 02:03:17;;;;;;;8.00;7.30;;;;;;;19.05;89.91;95854.13;5035009;28;21003;-86
2021/09/27 02:05:51;;;;;;;7.72;7.00;;;;;;;19.03;90.71;95855.41;5035216;28;20693;-86
2021/09/27 02:08:23;;;;;;;7.75;7.05;;;;;;;19.00;90.20;95858.44;5035539;28;20256;-86
2021/09/27 02:10:55;;;;;;;8.10;7.30;;;;;;;19.04;90.18;95860.41;5035316;28;20205;-86
2021/09/27 02:13:27;;;;;;;8.02;7.25;;;;;;;19.08;90.38;95864.13;5034540;28;20229;-86
2021/09/27 02:16:00;;;;;;;7.93;7.22;;;;;;;19.08;90.20;95856.31;5034380;28;20562;-85
2021/09/27 02:18:36;;;;;;;8.73;7.82;;;;;;;19.03;90.35;95858.81;5034601;28;20202;-85
2021/09/27 02:21:09;;;;;;;8.30;7.55;;;;;;;19.01;91.01;95855.63;5033847;28;20213;-85
2021/09/27 02:23:41;;;;;;;8.20;7.43;;;;;;;19.04;89.94;95851.78;5034307;28;20229;-86
2021/09/27 02:26:08;;;;;;;7.82;7.13;;;;;;;19.08;89.13;95858.91;5034191;28;20213;-84
2021/09/27 02:28:34;;;;;;;7.80;7.00;;;;;;;19.11;89.48;95857.69;5033901;28;20572;-85
2021/09/27 02:31:08;;;;;;;7.93;7.13;;;;;;;19.14;88.86;95852.81;5034390;28;20571;-85
2021/09/27 02:33:43;;;;;;;7.57;6.88;;;;;;;19.10;88.63;95853.47;5033643;28;20225;-85
2021/09/27 02:36:13;;;;;;;7.40;6.80;;;;;;;19.15;88.82;95848.38;5034255;28;20208;-85
2021/09/27 02:38:49;;;;;;;7.97;7.28;;;;;;;19.11;89.50;95855.06;5033678;28;20226;-86
2021/09/27 02:41:22;;;;;;;8.43;7.63;;;;;;;19.07;88.92;95851.31;5033662;28;20213;-85
2021/09/27 02:43:49;;;;;;;8.00;7.30;;;;;;;18.99;89.15;95860.25;5033047;28;20228;-85
2021/09/27 02:46:15;;;;;;;8.07;7.25;;;;;;;18.99;88.56;95855.03;5034610;28;20204;-86
2021/09/27 02:48:54;;;;;;;7.93;7.22;;;;;;;18.95;88.96;95857.28;5035221;28;20228;-86
2021/09/27 02:51:20;;;;;;;7.57;6.88;;;;;;;18.95;88.62;95846.84;5015280;28;20202;-85
2021/09/27 02:53:47;;;;;;;7.70;7.00;;;;;;;18.95;87.95;95853.88;5014952;28;20235;-85
2021/09/27 02:56:30;;;;;;;7.35;6.65;;;;;;;18.90;88.35;95851.13;5015303;28;20207;-85
2021/09/27 02:59:09;;;;;;;7.97;7.18;;;;;;;18.90;88.26;95851.13;5015119;28;20674;-85
2021/09/27 03:01:44;;;;;;;7.80;7.10;;;;;;;18.82;89.27;95851.47;5023822;28;20205;-86
2021/09/27 03:04:17;;;;;;;7.82;7.05;;;;;;;18.78;89.89;95851.09;5031807;28;20210;-85
2021/09/27 03:07:00;;;;;;;7.47;6.88;;;;;;;18.84;89.45;95852.84;5032416;28;20704;-85
2021/09/27 03:09:38;;;;;;;7.70;7.00;;;;;;;18.91;88.89;95855.34;5023307;28;20713;-85
2021/09/27 03:12:14;;;;;;;8.07;7.28;;;;;;;18.93;88.77;95854.09;5035849;28;20202;-85
2021/09/27 03:15:09;;;;;;;7.43;6.75;;;;;;;18.90;88.39;95838.09;5036414;28;20213;-85
2021/09/27 03:17:45;;;;;;;7.25;6.65;;;;;;;18.84;88.56;95844.22;5036617;28;20183;-85
2021/09/27 03:20:27;;;;;;;7.95;7.10;;;;;;;18.81;89.36;95836.81;5037378;28;20205;-86
2021/09/27 03:23:02;;;;;;;7.38;6.65;;;;;;;18.85;89.51;95844.00;5037054;28;20727;-85
2021/09/27 03:25:48;;;;;;;7.57;6.88;;;;;;;18.78;89.75;95845.88;5037892;28;20216;-86
2021/09/27 03:28:25;;;;;;;7.28;6.57;;;;;;;18.76;89.84;95853.13;5037562;28;20226;-86
2021/09/27 03:31:01;;;;;;;7.38;6.68;;;;;;;18.75;89.09;95851.53;5038786;28;20568;-85
2021/09/27 03:33:39;;;;;;;7.30;6.65;;;;;;;18.71;89.57;95844.38;5038005;28;20241;-84
2021/09/27 03:36:22;;;;;;;7.85;7.15;;;;;;;18.67;89.30;95844.00;5037118;28;20202;-85
2021/09/27 03:38:59;;;;;;;8.27;7.10;;;;;;;18.67;89.36;95849.22;5056621;28;20244;-86
2021/09/27 03:41:33;;;;;;;7.72;6.97;;;;;;;18.61;89.35;95853.53;5057661;28;20211;-86
2021/09/27 03:44:04;;;;;;;7.55;6.85;;;;;;;18.63;89.06;95848.91;5057370;28;20601;-85
2021/09/27 03:46:39;;;;;;;7.40;6.80;;;;;;;18.58;90.56;95848.72;5057240;28;20619;-85
2021/09/27 03:49:12;;;;;;;7.30;6.60;;;;;;;18.65;89.28;95848.69;5057228;28;20224;-86
2021/09/27 03:51:47;;;;;;;7.28;6.68;;;;;;;18.71;88.73;95844.38;5056007;28;20205;-85
2021/09/27 03:54:19;;;;;;;7.40;6.80;;;;;;;18.62;89.13;95847.31;5056302;28;20229;-85
2021/09/27 03:56:49;;;;;;;7.20;6.60;;;;;;;18.65;88.82;95842.66;5056919;28;20695;-85
2021/09/27 03:59:22;;;;;;;7.57;6.93;;;;;;;18.62;88.43;95842.09;5057002;28;20198;-86
2021/09/27 04:01:59;;;;;;;7.25;6.55;;;;;;;18.60;88.53;95843.31;5057185;28;20208;-85
2021/09/27 04:04:46;;;;;;;8.45;7.32;;;;;;;18.63;87.87;95841.06;5057147;28;20689;-85
2021/09/27 04:07:24;;;;;;;7.75;7.07;;;;;;;18.49;89.46;95852.63;5057077;28;20198;-85
2021/09/27 04:10:00;;;;;;;7.90;7.13;;;;;;;18.44;89.60;95849.91;5057387;28;20276;-85
2021/09/27 04:12:36;;;;;;;7.03;6.43;;;;;;;18.51;88.86;95853.22;5056765;28;20236;-86
2021/09/27 04:15:12;;;;;;;7.53;6.82;;;;;;;18.55;88.71;95843.13;5056328;28;20208;-85
2021/09/27 04:17:51;;;;;;;7.10;6.50;;;;;;;18.56;88.73;95848.13;5055789;28;20765;-85
2021/09/27 04:20:24;;;;;;;7.25;6.55;;;;;;;18.52;88.60;95860.03;5056325;28;20726;-85
2021/09/27 04:23:05;;;;;;;7.25;6.55;;;;;;;18.45;89.43;95856.72;5054606;28;20225;-85
2021/09/27 04:25:40;;;;;;;8.40;7.60;;;;;;;18.47;88.46;95852.06;5049922;28;20240;-85
2021/09/27 04:28:33;;;;;;;7.38;6.72;;;;;;;18.48;89.09;95855.44;5042608;28;20600;-85
2021/09/27 04:31:14;;;;;;;7.32;6.63;;;;;;;18.45;88.22;95854.09;5053278;28;20209;-86
2021/09/27 04:33:59;;;;;;;7.28;6.68;;;;;;;18.45;88.37;95853.31;5052805;28;20217;-85
2021/09/27 04:36:28;;;;;;;7.05;6.40;;;;;;;18.38;88.47;95849.97;5049098;28;20197;-85
2021/09/27 04:39:02;;;;;;;8.75;6.60;;;;;;;18.35;88.61;95845.19;5053802;28;20198;-85
2021/09/27 04:41:57;;;;;;;7.20;6.50;;;;;;;18.32;88.84;95843.00;5053656;28;20198;-85
2021/09/27 04:44:40;;;;;;;7.57;6.30;;;;;;;18.33;89.42;95834.19;5053636;28;20194;-85
2021/09/27 04:47:12;;;;;;;7.13;6.50;;;;;;;18.40;88.60;95847.94;5055255;28;20201;-85
2021/09/27 04:49:57;;;;;;;6.70;6.20;;;;;;;18.34;88.23;95841.78;5055928;28;20662;-85
2021/09/27 04:52:35;;;;;;;6.28;5.63;;;;;;;18.38;88.34;95836.94;5054853;28;20240;-85
2021/09/27 04:55:22;;;;;;;6.95;5.85;;;;;;;18.38;87.44;95840.34;5054979;28;20209;-85
2021/09/27 04:58:06;;;;;;;6.15;5.57;;;;;;;18.30;88.31;95838.81;5055398;28;20645;-85
2021/09/27 05:00:41;;;;;;;6.20;5.60;;;;;;;18.19;89.09;95839.56;5054487;28;20198;-85
2021/09/27 05:03:29;;;;;;;6.85;6.15;;;;;;;18.03;93.01;95839.34;5055185;28;20707;-85
2021/09/27 05:06:15;;;;;;;6.20;5.60;;;;;;;18.04;92.55;95846.94;5054573;28;20202;-84
2021/09/27 05:09:01;;;;;;;7.80;6.47;;;;;;;18.12;90.67;95843.22;5054687;28;20664;-85
2021/09/27 05:11:59;;;;;;;6.88;6.20;;;;;;;18.20;89.82;95845.56;5052506;28;20204;-85
2021/09/27 05:14:42;;;;;;;29.88;26.88;;;;;;;18.30;88.28;95846.63;5045556;28;20206;-85
2021/09/27 05:17:26;;;;;;;11.40;10.32;;;;;;;18.39;87.50;95851.56;5050896;28;20209;-85
2021/09/27 05:20:09;;;;;;;7.40;6.80;;;;;;;18.39;87.05;95847.16;5052928;28;20200;-85
2021/09/27 05:22:51;;;;;;;6.30;5.80;;;;;;;18.32;88.06;95851.63;5051043;28;20220;-85
2021/09/27 05:26:01;;;;;;;6.22;5.63;;;;;;;18.31;87.80;95842.22;5045180;28;20213;-85
2021/09/27 05:28:46;;;;;;;6.57;5.97;;;;;;;18.31;86.94;95850.03;5051861;28;20617;-85
2021/09/27 05:31:42;;;;;;;6.28;5.70;;;;;;;18.24;87.60;95851.94;5052182;28;20197;-84
2021/09/27 05:34:19;;;;;;;8.50;6.03;;;;;;;18.22;85.91;95848.75;5042320;28;20213;-84
2021/09/27 05:37:14;;;;;;;5.95;5.45;;;;;;;18.24;86.23;95844.91;5049596;28;20239;-85
2021/09/27 05:40:01;;;;;;;14.57;13.23;;;;;;;18.31;85.42;95852.63;5051796;28;20206;-85
2021/09/27 05:42:39;;;;;;;16.73;15.13;;;;;;;18.36;85.25;95857.22;5050073;28;20305;-85
2021/09/27 05:45:18;;;;;;;7.97;7.28;;;;;;;18.36;84.52;95857.22;5051758;28;20208;-85
2021/09/27 05:47:52;;;;;;;6.93;6.22;;;;;;;18.39;84.79;95859.38;5054190;28;20197;-85
2021/09/27 05:50:27;;;;;;;6.60;6.00;;;;;;;18.36;84.51;95857.22;5055287;28;20214;-84
2021/09/27 05:53:03;;;;;;;6.85;5.53;;;;;;;18.39;84.56;95856.78;5055295;28;20248;-84
2021/09/27 05:55:43;;;;;;;7.78;6.75;;;;;;;18.38;84.80;95855.97;5053127;28;20200;-85
2021/09/27 05:58:18;;;;;;;5.72;5.22;;;;;;;18.34;84.62;95861.84;5055210;28;20209;-85
2021/09/27 06:00:59;;;;;;;6.43;5.15;;;;;;;18.32;84.68;95864.66;5055533;28;20200;-85
2021/09/27 06:03:41;;;;;;;6.13;5.53;;;;;;;18.30;84.95;95867.50;5058515;28;20239;-86
2021/09/27 06:06:22;;;;;;;5.80;5.20;;;;;;;18.26;85.41;95863.75;5067887;28;20201;-85
2021/09/27 06:09:00;;;;;;;6.35;5.75;;;;;;;18.23;86.08;95866.78;5056045;28;20221;-85
2021/09/27 06:11:37;;;;;;;6.28;5.78;;;;;;;18.27;85.36;95860.13;5055029;28;20201;-85
2021/09/27 06:14:05;;;;;;;6.47;5.88;;;;;;;18.32;85.10;95869.09;5054530;28;20222;-85
2021/09/27 06:16:48;;;;;;;9.75;8.52;;;;;;;18.39;85.08;95872.41;5055585;28;20296;-85
2021/09/27 06:19:23;;;;;;;6.57;5.38;;;;;;;18.49;84.91;95872.69;5056915;28;20197;-85
2021/09/27 06:22:12;;;;;;;6.05;5.55;;;;;;;18.51;84.46;95870.66;5055625;28;20205;-85
2021/09/27 06:24:53;;;;;;;5.90;5.40;;;;;;;18.58;83.71;95866.97;5061232;28;20207;-85
2021/09/27 06:27:28;;;;;;;5.72;5.15;;;;;;;18.79;82.76;95867.56;5076771;28;20580;-85
2021/09/27 06:30:04;;;;;;;5.82;5.32;;;;;;;18.99;81.54;95868.09;5069597;28;20228;-85
2021/09/27 06:32:37;;;;;;;5.68;5.07;;;;;;;19.24;81.44;95868.72;5055672;28;20217;-86
2021/09/27 06:35:09;;;;;;;5.60;5.10;;;;;;;19.23;81.92;95863.75;5055078;28;20212;-86
2021/09/27 06:37:36;;;;;;;7.93;5.60;;;;;;;19.26;82.61;95863.28;5055196;28;20232;-85
2021/09/27 06:40:07;;;;;;;6.72;5.72;;;;;;;19.25;83.23;95859.88;5055144;28;20197;-84
2021/09/27 06:42:34;;;;;;;5.68;5.18;;;;;;;19.24;83.86;95860.88;5056375;28;20643;-85
2021/09/27 06:45:01;;;;;;;5.30;4.80;;;;;;;19.13;84.47;95861.66;5054840;28;20198;-85
2021/09/27 06:47:28;;;;;;;5.95;5.35;;;;;;;19.25;84.08;95852.03;5056602;28;20205;-85
2021/09/27 06:49:55;;;;;;;5.75;5.13;;;;;;;19.30;84.10;95848.75;5053496;28;20228;-85
2021/09/27 06:52:23;;;;;;;5.57;5.07;;;;;;;19.66;82.85;95860.88;5054318;28;20225;-85
2021/09/27 06:54:54;;;;;;;5.68;5.18;;;;;;;19.92;81.19;95855.19;5056133;28;20217;-85
2021/09/27 06:57:23;;;;;;;5.80;5.30;;;;;;;20.05;79.56;95848.13;5056091;28;20189;-85
2021/09/27 06:59:49;;;;;;;6.43;5.20;;;;;;;20.06;78.64;95858.38;5056315;28;20253;-86
2021/09/27 07:02:17;;;;;;;5.55;5.03;;;;;;;19.92;78.46;95863.03;5055905;28;20224;-85
2021/09/27 07:04:44;;;;;;;5.53;5.03;;;;;;;19.77;78.92;95857.47;5053919;28;20209;-86
2021/09/27 07:07:12;;;;;;;8.98;8.10;;;;;;;19.64;80.47;95850.63;5053969;28;20209;-85
2021/09/27 07:09:38;;;;;;;5.50;5.00;;;;;;;19.54;80.21;95853.03;5056210;28;20232;-85
2021/09/27 07:12:17;;;;;;;5.35;4.95;;;;;;;19.47;80.87;95852.31;5055087;28;20213;-86
2021/09/27 07:14:44;;;;;;;5.63;5.13;;;;;;;19.36;83.59;95858.31;5054851;28;20204;-86
2021/09/27 07:17:17;;;;;;;7.70;4.97;;;;;;;19.35;82.96;95855.94;5052976;28;20284;-86
2021/09/27 07:19:46;;;;;;;6.20;5.15;;;;;;;19.35;82.30;95850.69;5051732;28;20221;-86
2021/09/27 07:22:14;;;;;;;5.78;5.30;;;;;;;19.37;81.91;95854.69;5054413;28;20747;-87
2021/09/27 07:24:41;;;;;;;5.75;4.80;;;;;;;19.41;81.29;95849.81;5058005;28;20193;-86
2021/09/27 07:27:09;;;;;;;5.30;4.90;;;;;;;19.56;81.86;95856.22;5058110;28;20275;-87
2021/09/27 07:29:40;;;;;;;5.15;4.65;;;;;;;19.63;81.15;95854.28;5057329;28;20217;-85
2021/09/27 07:32:09;;;;;;;5.60;4.60;;;;;;;20.06;79.88;95858.38;5057757;28;20205;-86
2021/09/27 07:34:37;;;;;;;5.18;4.70;;;;;;;20.47;79.03;95852.19;5057322;28;20679;-85
2021/09/27 07:37:04;;;;;;;18.70;16.38;;;;;;;20.73;77.27;95844.84;5060839;28;20642;-86
2021/09/27 07:39:36;;;;;;;7.80;7.10;;;;;;;20.88;77.16;95850.34;5076961;28;20279;-87
2021/09/27 07:42:04;;;;;;;5.15;4.75;;;;;;;21.16;73.60;95844.31;5074709;28;20215;-87
2021/09/27 07:44:34;;;;;;;5.25;4.55;;;;;;;21.48;71.37;95845.38;5053652;28;20202;-86
2021/09/27 07:47:02;;;;;;;4.82;4.43;;;;;;;21.65;70.71;95837.50;5055598;28;20583;-87
2021/09/27 07:49:30;;;;;;;6.78;4.13;;;;;;;21.89;69.34;95832.88;5054200;28;20218;-87
2021/09/27 07:52:00;;;;;;;5.30;4.82;;;;;;;22.14;69.13;95835.06;5051210;28;20193;-87
2021/09/27 07:54:32;;;;;;;4.80;4.40;;;;;;;22.47;66.40;95840.22;5060305;28;20292;-86
2021/09/27 07:57:01;;;;;;;4.75;4.35;;;;;;;22.70;65.01;95831.31;5064761;28;20205;-86
2021/09/27 07:59:29;;;;;;;5.10;4.28;;;;;;;22.92;64.83;95839.16;5062943;28;20201;-87
2021/09/27 08:01:59;;;;;;;7.00;4.50;;;;;;;22.97;62.44;95841.81;5063047;28;20229;-86
2021/09/27 08:04:31;;;;;;;4.75;4.43;;;;;;;23.05;60.39;95844.03;5071141;28;20196;-86
2021/09/27 08:07:05;;;;;;;4.85;4.45;;;;;;;23.23;61.02;95835.78;5058269;28;20565;-87
2021/09/27 08:09:43;;;;;;;4.78;4.18;;;;;;;23.39;60.67;95844.59;5076512;28;20307;-86
2021/09/27 08:12:13;;;;;;;4.88;4.47;;;;;;;23.55;59.56;95845.53;5076890;28;20370;-85
2021/09/27 08:14:44;;;;;;;5.15;4.65;;;;;;;23.72;59.69;95844.34;5056116;28;20225;-86
2021/09/27 08:17:13;;;;;;;10.93;5.22;;;;;;;23.71;62.37;95842.75;5057019;28;20284;-86
2021/09/27 08:19:42;;;;;;;6.57;4.78;;;;;;;23.87;60.39;95848.09;5056135;28;20193;-86
2021/09/27 08:22:14;;;;;;;5.43;4.90;;;;;;;24.01;60.38;95844.00;5056444;28;20247;-86
2021/09/27 08:24:42;;;;;;;8.25;7.38;;;;;;;23.80;60.14;95842.28;5060936;28;20193;-86
2021/09/27 08:27:11;;;;;;;5.25;4.75;;;;;;;24.03;60.10;95841.91;5059108;28;20216;-86
2021/09/27 08:29:46;;;;;;;6.72;5.55;;;;;;;24.21;59.62;95841.47;5054806;28;20268;-86
2021/09/27 08:32:16;;;;;;;5.47;5.00;;;;;;;24.36;58.77;95843.41;5055069;28;20205;-87
2021/09/27 08:34:43;;;;;;;6.32;5.72;;;;;;;24.18;58.84;95847.25;5034333;28;20198;-86
2021/09/27 08:37:11;;;;;;;5.18;4.78;;;;;;;24.29;58.05;95846.28;5034465;28;20228;-86
2021/09/27 08:39:46;;;;;;;5.63;5.10;;;;;;;23.97;58.53;95842.91;5054408;28;20293;-86
2021/09/27 08:42:22;;;;;;;5.57;5.07;;;;;;;23.76;58.76;95845.41;5054818;28;20197;-86
2021/09/27 08:44:54;;;;;;;8.57;7.80;;;;;;;23.74;59.24;95842.25;5054568;28;20227;-87
2021/09/27 08:47:34;;;;;;;9.70;8.77;;;;;;;24.08;58.98;95836.66;5055110;28;20205;-86
2021/09/27 08:50:22;;;;;;;;;;;;;;;;;;;;;
2021/09/27 08:52:50;;;;;;;5.82;5.22;;;;;;;24.65;57.16;95836.66;5054795;28;20319;-86
2021/09/27 08:55:19;;;;;;;5.97;5.00;;;;;;;24.87;55.49;95838.31;5055232;28;20206;-86
2021/09/27 08:57:59;;;;;;;5.63;5.10;;;;;;;24.97;55.90;95841.00;5055449;28;20213;-86
2021/09/27 09:00:36;;;;;;;5.97;5.47;;;;;;;25.02;54.22;95836.53;5056174;28;20205;-86
2021/09/27 09:03:19;;;;;;;5.60;5.10;;;;;;;24.35;55.88;95837.34;5058423;28;20579;-86
2021/09/27 09:05:50;;;;;;;5.88;5.38;;;;;;;24.08;58.10;95836.66;5057772;28;20212;-86
2021/09/27 09:08:25;;;;;;;6.07;5.47;;;;;;;23.66;58.00;95834.06;5057383;28;20193;-87
2021/09/27 09:11:00;;;;;;;5.63;5.20;;;;;;;23.63;58.43;95837.97;5057716;28;20221;-87
2021/09/27 09:13:35;;;;;;;5.93;5.43;;;;;;;23.89;57.24;95833.66;5058136;28;20248;-87
2021/09/27 09:16:08;;;;;;;5.65;5.22;;;;;;;24.30;58.06;95833.91;5056545;28;20200;-85
2021/09/27 09:18:46;;;;;;;5.47;4.95;;;;;;;24.55;56.52;95825.31;5052351;28;20198;-86
2021/09/27 09:21:18;;;;;;;6.47;5.13;;;;;;;24.67;56.29;95828.50;5056858;28;20664;-86
2021/09/27 09:24:00;;;;;;;5.55;5.15;;;;;;;24.76;53.83;95827.75;5054256;28;20249;-87
2021/09/27 09:26:36;;;;;;;5.45;5.05;;;;;;;24.98;55.59;95832.06;5056026;28;20266;-85
2021/09/27 09:29:17;;;;;;;5.90;5.40;;;;;;;24.89;56.22;95823.03;5055128;28;20201;-87
2021/09/27 09:31:54;;;;;;;5.82;5.13;;;;;;;24.81;56.43;95819.09;5054915;28;20553;-86
2021/09/27 09:34:48;;;;;;;5.43;5.03;;;;;;;24.53;54.83;95816.88;5052760;28;20215;-86
2021/09/27 09:37:23;;;;;;;6.20;5.65;;;;;;;24.18;55.99;95815.66;5051493;28;20268;-87
2021/09/27 09:39:57;;;;;;;6.68;5.55;;;;;;;23.98;57.38;95824.25;5053840;28;20204;-87
2021/09/27 09:42:29;;;;;;;5.90;5.50;;;;;;;24.19;56.04;95808.56;5054360;28;20260;-86
2021/09/27 09:45:09;;;;;;;5.85;5.30;;;;;;;24.48;55.71;95819.50;5054263;28;20197;-87
2021/09/27 09:47:36;;;;;;;5.30;4.88;;;;;;;24.42;57.51;95824.75;5054178;28;20730;-86
2021/09/27 09:50:06;;;;;;;6.13;5.53;;;;;;;24.24;56.57;95812.06;5052656;28;20308;-86
2021/09/27 09:52:38;;;;;;;5.78;5.22;;;;;;;23.99;55.01;95823.22;5052133;28;20233;-86
2021/09/27 09:55:19;;;;;;;6.15;5.55;;;;;;;23.86;54.81;95813.13;5051370;28;20209;-87
2021/09/27 09:57:56;;;;;;;6.75;5.97;;;;;;;24.04;54.92;95814.56;5051158;28;20194;-86
2021/09/27 10:00:38;;;;;;;5.88;5.38;;;;;;;24.12;55.47;95816.69;5052210;28;20216;-86
2021/09/27 10:03:19;;;;;;;6.10;5.60;;;;;;;24.08;55.59;95816.41;5050491;28;20217;-86
2021/09/27 10:05:52;;;;;;;6.80;6.13;;;;;;;24.25;57.38;95821.50;5051041;28;20227;-86
2021/09/27 10:08:21;;;;;;;6.15;5.60;;;;;;;24.38;57.95;95817.63;5051671;28;20344;-87
2021/09/27 10:10:56;;;;;;;6.07;5.47;;;;;;;24.39;56.00;95817.38;5052599;28;20221;-86
2021/09/27 10:13:39;;;;;;;5.43;5.03;;;;;;;24.45;57.00;95805.00;5052134;28;21300;-86
2021/09/27 10:16:13;;;;;;;5.60;5.03;;;;;;;24.13;57.76;95814.84;5046521;28;20205;-86
2021/09/27 10:18:41;;;;;;;5.93;5.45;;;;;;;24.05;56.15;95809.00;5052752;28;20197;-86
2021/09/27 10:21:24;;;;;;;5.18;4.68;;;;;;;23.90;54.17;95814.19;5052808;28;20198;-87
2021/09/27 10:23:53;;;;;;;5.70;5.20;;;;;;;23.89;53.88;95804.72;5051067;28;20241;-87
2021/09/27 10:26:28;;;;;;;7.75;5.45;;;;;;;23.82;55.48;95801.53;5050295;28;20194;-88
2021/09/27 10:28:59;;;;;;;6.00;5.40;;;;;;;24.01;54.99;95804.53;5050080;28;20203;-88
2021/09/27 10:31:28;;;;;;;7.07;6.38;;;;;;;24.05;56.04;95806.38;5050365;28;20243;-88
2021/09/27 10:33:57;;;;;;;6.32;5.72;;;;;;;24.16;55.57;95798.56;5050065;28;20217;-87
2021/09/27 10:37:08;;;;;;;5.75;5.30;;;;;;;24.01;54.89;95800.06;5051149;28;20204;-88
2021/09/27 10:39:35;;;;;;;6.18;5.53;;;;;;;23.90;54.88;95802.88;5035971;28;20221;-88
2021/09/27 10:44:50;;;;;;;7.60;5.78;;;;;;;23.80;55.67;95808.91;5045180;28;20603;-88
2021/09/27 10:47:22;;;;;;;6.00;5.43;;;;;;;23.67;55.85;95807.47;5053981;28;20193;-89
2021/09/27 10:50:04;;;;;;;6.45;5.95;;;;;;;23.67;56.32;95809.31;5066124;28;20217;-88
2021/09/27 10:52:43;;;;;;;6.07;5.47;;;;;;;23.52;56.06;95810.00;5051983;28;20221;-88
2021/09/27 10:55:16;;;;;;;6.47;5.70;;;;;;;23.42;56.37;95807.28;5055121;28;20196;-86
2021/09/27 10:57:54;;;;;;;6.18;5.68;;;;;;;23.36;56.46;95805.66;5071317;28;20208;-86
2021/09/27 11:00:32;;;;;;;6.18;5.68;;;;;;;23.37;56.72;95805.41;5071700;28;20199;-86
2021/09/27 11:03:07;;;;;;;6.43;5.93;;;;;;;23.30;56.95;95802.19;5071285;28;20731;-85
2021/09/27 11:05:47;;;;;;;7.25;6.55;;;;;;;23.16;56.46;95798.41;5050515;28;20711;-87
2021/09/27 11:08:17;;;;;;;6.95;6.32;;;;;;;23.14;56.63;95804.94;5050586;28;20267;-86
2021/09/27 11:10:46;;;;;;;6.13;5.63;;;;;;;23.19;57.19;95797.91;5055725;28;20228;-87
2021/09/27 11:13:34;;;;;;;6.38;5.47;;;;;;;23.35;55.27;95806.69;5055696;28;20218;-86
2021/09/27 11:16:07;;;;;;;5.95;5.45;;;;;;;23.51;56.00;95799.72;5038202;28;20189;-86
2021/09/27 11:18:34;;;;;;;5.90;5.40;;;;;;;23.60;55.41;95799.03;5071082;28;20196;-85
2021/09/27 11:21:18;;;;;;;6.03;5.63;;;;;;;23.73;55.79;95801.22;5061166;28;20316;-86
2021/09/27 11:23:49;;;;;;;5.40;5.00;;;;;;;23.74;54.40;95794.91;5050450;28;20243;-86
2021/09/27 11:26:35;;;;;;;5.82;5.32;;;;;;;23.75;52.01;95795.72;5068748;28;20201;-87
2021/09/27 11:29:21;;;;;;;5.45;5.05;;;;;;;23.69;53.02;95791.44;5066061;28;20251;-87
2021/09/27 11:31:47;;;;;;;5.43;5.03;;;;;;;23.75;53.61;95782.56;5059520;28;20284;-86
2021/09/27 11:34:41;;;;;;;6.00;5.40;;;;;;;23.86;54.92;95788.69;5059797;28;20216;-86
2021/09/27 11:37:16;;;;;;;6.97;6.38;;;;;;;24.01;54.44;95789.56;5035258;28;20230;-87
2021/09/27 11:39:46;;;;;;;13.20;12.10;;;;;;;24.21;55.91;95791.47;5043984;28;20197;-87
2021/09/27 11:42:49;;;;;;;6.18;5.68;;;;;;;24.15;56.51;95787.25;5055564;28;20205;-86
2021/09/27 11:45:36;;;;;;;5.95;5.55;;;;;;;24.20;57.58;95791.75;5055621;28;20212;-86
2021/09/27 11:48:09;;;;;;;6.05;5.40;;;;;;;24.35;56.55;95787.34;5056245;28;20742;-84
2021/09/27 11:51:02;;;;;;;5.70;5.30;;;;;;;24.27;57.31;95782.56;5056368;28;20289;-84
2021/09/27 11:53:38;;;;;;;6.38;5.88;;;;;;;24.01;57.05;95788.75;5056414;28;20236;-86
2021/09/27 11:56:11;;;;;;;6.18;5.68;;;;;;;23.98;58.24;95791.91;5054839;28;20208;-87
2021/09/27 11:58:44;;;;;;;5.90;5.30;;;;;;;23.92;57.50;95788.44;5055612;28;20292;-86
2021/09/27 12:01:19;;;;;;;5.93;5.30;;;;;;;23.71;57.88;95781.47;5055105;28;20212;-86
2021/09/27 12:03:57;;;;;;;5.80;5.30;;;;;;;23.78;57.84;95776.78;5055214;28;20232;-87
2021/09/27 12:06:32;;;;;;;5.57;5.18;;;;;;;23.90;58.34;95781.84;5053677;28;20193;-86
2021/09/27 12:09:04;;;;;;;6.03;5.63;;;;;;;24.07;55.42;95780.63;5051047;28;20236;-86
2021/09/27 12:11:34;;;;;;;5.97;5.47;;;;;;;24.11;55.40;95779.06;5052179;28;20227;-86
2021/09/27 12:14:02;;;;;;;5.88;4.85;;;;;;;24.16;54.79;95780.94;5052955;28;20232;-87